sensor_id;sensor_type;location;lat;lon;timestamp;P1;durP1;ratioP1;P2;durP2;ratioP2
44955;SDS011;30686;52.512;-1.188;2022-12-18T00:00:31;17.63;;;5.47;;
44955;SDS011;30686;52.512;-1.188;2022-12-18T00:02:57;17.48;;;5.20;;
44955;SDS011;30686;52.512;-1.188;2022-12-18T00:05:24;13.27;;;5.78;;
44955;SDS011;30686;52.512;-1.188;2022-12-18T00:07:50;19.42;;;4.72;;
44955;SDS011;30686;52.512;-1.188;2022-12-18T00:10:16;13.13;;;5.57;;
44955;SDS011;30686;52.512;-1.188;2022-12-18T00:12:45;11.43;;;4.97;;
44955;SDS011;30686;52.512;-1.188;2022-12-18T00:15:11;9.40;;;4.88;;
44955;SDS011;30686;52.512;-1.188;2022-12-18T00:17:37;13.85;;;5.63;;
44955;SDS011;30686;52.512;-1.188;2022-12-18T00:20:04;14.90;;;5.65;;
44955;SDS011;30686;52.512;-1.188;2022-12-18T00:22:39;11.40;;;4.57;;
44955;SDS011;30686;52.512;-1.188;2022-12-18T00:25:06;10.57;;;4.70;;
44955;SDS011;30686;52.512;-1.188;2022-12-18T00:27:38;11.38;;;4.53;;
44955;SDS011;30686;52.512;-1.188;2022-12-18T00:30:04;9.73;;;4.63;;
44955;SDS011;30686;52.512;-1.188;2022-12-18T00:32:32;11.73;;;5.07;;
44955;SDS011;30686;52.512;-1.188;2022-12-18T00:35:07;13.07;;;5.68;;
44955;SDS011;30686;52.512;-1.188;2022-12-18T00:37:34;13.63;;;5.65;;
44955;SDS011;30686;52.512;-1.188;2022-12-18T00:40:06;15.57;;;4.95;;
44955;SDS011;30686;52.512;-1.188;2022-12-18T00:42:40;9.77;;;4.72;;
44955;SDS011;30686;52.512;-1.188;2022-12-18T00:45:25;14.07;;;5.80;;
44955;SDS011;30686;52.512;-1.188;2022-12-18T00:47:55;11.50;;;4.65;;
44955;SDS011;30686;52.512;-1.188;2022-12-18T00:50:22;12.75;;;5.53;;
44955;SDS011;30686;52.512;-1.188;2022-12-18T00:52:49;11.40;;;4.68;;
44955;SDS011;30686;52.512;-1.188;2022-12-18T00:55:15;10.40;;;4.97;;
44955;SDS011;30686;52.512;-1.188;2022-12-18T00:57:42;11.05;;;4.85;;
44955;SDS011;30686;52.512;-1.188;2022-12-18T01:00:10;10.20;;;4.82;;
44955;SDS011;30686;52.512;-1.188;2022-12-18T01:02:37;14.02;;;5.10;;
44955;SDS011;30686;52.512;-1.188;2022-12-18T01:05:10;11.85;;;5.38;;
44955;SDS011;30686;52.512;-1.188;2022-12-18T01:07:36;14.77;;;5.53;;
44955;SDS011;30686;52.512;-1.188;2022-12-18T01:10:13;9.65;;;4.63;;
44955;SDS011;30686;52.512;-1.188;2022-12-18T01:12:40;12.02;;;5.50;;
44955;SDS011;30686;52.512;-1.188;2022-12-18T01:15:06;11.75;;;5.45;;
44955;SDS011;30686;52.512;-1.188;2022-12-18T01:17:35;14.02;;;5.43;;
44955;SDS011;30686;52.512;-1.188;2022-12-18T01:20:02;14.95;;;5.78;;
44955;SDS011;30686;52.512;-1.188;2022-12-18T01:22:29;14.32;;;5.63;;
44955;SDS011;30686;52.512;-1.188;2022-12-18T01:24:55;14.50;;;5.82;;
44955;SDS011;30686;52.512;-1.188;2022-12-18T01:27:21;14.90;;;6.78;;
44955;SDS011;30686;52.512;-1.188;2022-12-18T01:29:48;13.35;;;5.60;;
44955;SDS011;30686;52.512;-1.188;2022-12-18T01:32:18;13.45;;;5.63;;
44955;SDS011;30686;52.512;-1.188;2022-12-18T01:34:44;17.75;;;6.60;;
44955;SDS011;30686;52.512;-1.188;2022-12-18T01:37:10;13.93;;;6.20;;
44955;SDS011;30686;52.512;-1.188;2022-12-18T01:39:37;16.70;;;6.70;;
44955;SDS011;30686;52.512;-1.188;2022-12-18T01:42:10;12.52;;;6.05;;
44955;SDS011;30686;52.512;-1.188;2022-12-18T01:50:02;15.95;;;6.35;;
44955;SDS011;30686;52.512;-1.188;2022-12-18T01:52:29;16.73;;;6.93;;
44955;SDS011;30686;52.512;-1.188;2022-12-18T01:54:57;19.23;;;6.47;;
44955;SDS011;30686;52.512;-1.188;2022-12-18T01:57:23;22.77;;;7.18;;
44955;SDS011;30686;52.512;-1.188;2022-12-18T01:59:53;24.80;;;7.43;;
44955;SDS011;30686;52.512;-1.188;2022-12-18T02:02:21;16.05;;;7.00;;
44955;SDS011;30686;52.512;-1.188;2022-12-18T02:04:48;20.40;;;8.50;;
44955;SDS011;30686;52.512;-1.188;2022-12-18T02:09:47;18.27;;;7.85;;
44955;SDS011;30686;52.512;-1.188;2022-12-18T02:27:59;17.70;;;7.93;;
44955;SDS011;30686;52.512;-1.188;2022-12-18T02:30:32;21.27;;;8.13;;
44955;SDS011;30686;52.512;-1.188;2022-12-18T02:33:02;24.77;;;10.27;;
44955;SDS011;30686;52.512;-1.188;2022-12-18T02:35:30;20.10;;;7.90;;
44955;SDS011;30686;52.512;-1.188;2022-12-18T02:37:56;20.65;;;8.07;;
44955;SDS011;30686;52.512;-1.188;2022-12-18T02:40:26;18.88;;;8.63;;
44955;SDS011;30686;52.512;-1.188;2022-12-18T02:42:53;18.08;;;7.68;;
44955;SDS011;30686;52.512;-1.188;2022-12-18T02:45:19;21.60;;;8.75;;
44955;SDS011;30686;52.512;-1.188;2022-12-18T02:47:47;24.73;;;9.65;;
44955;SDS011;30686;52.512;-1.188;2022-12-18T02:55:34;24.45;;;8.30;;
44955;SDS011;30686;52.512;-1.188;2022-12-18T03:03:49;19.65;;;8.30;;
44955;SDS011;30686;52.512;-1.188;2022-12-18T03:06:27;21.20;;;7.75;;
44955;SDS011;30686;52.512;-1.188;2022-12-18T03:08:58;20.45;;;9.23;;
44955;SDS011;30686;52.512;-1.188;2022-12-18T03:11:25;25.55;;;9.50;;
44955;SDS011;30686;52.512;-1.188;2022-12-18T03:14:13;20.17;;;8.30;;
44955;SDS011;30686;52.512;-1.188;2022-12-18T03:16:41;22.90;;;9.95;;
44955;SDS011;30686;52.512;-1.188;2022-12-18T03:19:09;20.48;;;8.80;;
44955;SDS011;30686;52.512;-1.188;2022-12-18T03:21:45;27.60;;;9.68;;
44955;SDS011;30686;52.512;-1.188;2022-12-18T03:24:12;21.02;;;8.60;;
44955;SDS011;30686;52.512;-1.188;2022-12-18T03:26:40;24.27;;;8.82;;
44955;SDS011;30686;52.512;-1.188;2022-12-18T03:29:21;20.60;;;7.97;;
44955;SDS011;30686;52.512;-1.188;2022-12-18T03:31:49;27.15;;;9.90;;
44955;SDS011;30686;52.512;-1.188;2022-12-18T03:34:19;25.85;;;9.55;;
44955;SDS011;30686;52.512;-1.188;2022-12-18T03:36:47;27.40;;;10.88;;
44955;SDS011;30686;52.512;-1.188;2022-12-18T03:39:13;22.40;;;8.68;;
44955;SDS011;30686;52.512;-1.188;2022-12-18T03:44:13;22.10;;;9.25;;
44955;SDS011;30686;52.512;-1.188;2022-12-18T03:46:43;18.55;;;9.00;;
44955;SDS011;30686;52.512;-1.188;2022-12-18T03:49:24;23.48;;;7.82;;
44955;SDS011;30686;52.512;-1.188;2022-12-18T03:54:33;22.98;;;9.90;;
44955;SDS011;30686;52.512;-1.188;2022-12-18T03:57:02;26.90;;;9.68;;
44955;SDS011;30686;52.512;-1.188;2022-12-18T03:59:30;23.50;;;9.10;;
44955;SDS011;30686;52.512;-1.188;2022-12-18T04:01:57;29.48;;;9.77;;
44955;SDS011;30686;52.512;-1.188;2022-12-18T04:04:24;23.45;;;8.70;;
44955;SDS011;30686;52.512;-1.188;2022-12-18T04:06:51;24.10;;;10.40;;
44955;SDS011;30686;52.512;-1.188;2022-12-18T04:09:19;23.77;;;8.80;;
44955;SDS011;30686;52.512;-1.188;2022-12-18T04:11:46;22.23;;;9.20;;
44955;SDS011;30686;52.512;-1.188;2022-12-18T04:14:13;19.88;;;9.90;;
44955;SDS011;30686;52.512;-1.188;2022-12-18T04:16:39;21.83;;;9.60;;
44955;SDS011;30686;52.512;-1.188;2022-12-18T04:19:05;29.77;;;10.85;;
44955;SDS011;30686;52.512;-1.188;2022-12-18T04:21:31;27.50;;;11.25;;
44955;SDS011;30686;52.512;-1.188;2022-12-18T04:23:58;25.55;;;9.25;;
44955;SDS011;30686;52.512;-1.188;2022-12-18T04:26:24;19.95;;;8.80;;
44955;SDS011;30686;52.512;-1.188;2022-12-18T04:28:50;23.88;;;9.57;;
44955;SDS011;30686;52.512;-1.188;2022-12-18T04:31:16;21.15;;;8.55;;
44955;SDS011;30686;52.512;-1.188;2022-12-18T04:33:42;23.83;;;10.15;;
44955;SDS011;30686;52.512;-1.188;2022-12-18T04:36:09;27.20;;;10.02;;
44955;SDS011;30686;52.512;-1.188;2022-12-18T04:38:37;27.88;;;10.10;;
44955;SDS011;30686;52.512;-1.188;2022-12-18T04:41:03;25.65;;;10.05;;
44955;SDS011;30686;52.512;-1.188;2022-12-18T04:43:30;24.38;;;10.18;;
44955;SDS011;30686;52.512;-1.188;2022-12-18T04:46:07;21.10;;;8.05;;
44955;SDS011;30686;52.512;-1.188;2022-12-18T04:48:36;27.65;;;10.80;;
44955;SDS011;30686;52.512;-1.188;2022-12-18T04:51:03;26.50;;;11.90;;
44955;SDS011;30686;52.512;-1.188;2022-12-18T04:53:29;28.13;;;10.75;;
44955;SDS011;30686;52.512;-1.188;2022-12-18T04:56:03;26.05;;;9.73;;
44955;SDS011;30686;52.512;-1.188;2022-12-18T04:58:29;30.50;;;10.37;;
44955;SDS011;30686;52.512;-1.188;2022-12-18T05:00:56;23.48;;;9.15;;
44955;SDS011;30686;52.512;-1.188;2022-12-18T05:03:22;23.27;;;9.70;;
44955;SDS011;30686;52.512;-1.188;2022-12-18T05:05:52;25.13;;;9.95;;
44955;SDS011;30686;52.512;-1.188;2022-12-18T05:08:18;30.83;;;12.65;;
44955;SDS011;30686;52.512;-1.188;2022-12-18T05:10:44;25.40;;;10.75;;
44955;SDS011;30686;52.512;-1.188;2022-12-18T05:13:10;28.77;;;10.80;;
44955;SDS011;30686;52.512;-1.188;2022-12-18T05:15:37;26.27;;;10.35;;
44955;SDS011;30686;52.512;-1.188;2022-12-18T05:18:03;26.27;;;11.35;;
44955;SDS011;30686;52.512;-1.188;2022-12-18T05:20:29;27.25;;;10.45;;
44955;SDS011;30686;52.512;-1.188;2022-12-18T05:22:56;29.60;;;12.43;;
44955;SDS011;30686;52.512;-1.188;2022-12-18T05:25:22;28.85;;;11.30;;
44955;SDS011;30686;52.512;-1.188;2022-12-18T05:27:49;27.13;;;9.50;;
44955;SDS011;30686;52.512;-1.188;2022-12-18T05:30:15;22.70;;;9.68;;
44955;SDS011;30686;52.512;-1.188;2022-12-18T05:32:42;29.95;;;12.23;;
44955;SDS011;30686;52.512;-1.188;2022-12-18T05:35:09;23.52;;;9.40;;
44955;SDS011;30686;52.512;-1.188;2022-12-18T05:37:35;26.38;;;11.32;;
44955;SDS011;30686;52.512;-1.188;2022-12-18T05:40:02;29.30;;;11.48;;
44955;SDS011;30686;52.512;-1.188;2022-12-18T05:42:29;27.52;;;12.40;;
44955;SDS011;30686;52.512;-1.188;2022-12-18T05:44:56;34.28;;;11.85;;
44955;SDS011;30686;52.512;-1.188;2022-12-18T05:47:22;27.48;;;9.75;;
44955;SDS011;30686;52.512;-1.188;2022-12-18T05:49:48;30.98;;;11.93;;
44955;SDS011;30686;52.512;-1.188;2022-12-18T05:52:14;28.92;;;11.13;;
44955;SDS011;30686;52.512;-1.188;2022-12-18T05:54:40;23.20;;;10.60;;
44955;SDS011;30686;52.512;-1.188;2022-12-18T05:57:07;29.45;;;12.05;;
44955;SDS011;30686;52.512;-1.188;2022-12-18T05:59:33;23.75;;;10.93;;
44955;SDS011;30686;52.512;-1.188;2022-12-18T06:01:59;27.73;;;10.25;;
44955;SDS011;30686;52.512;-1.188;2022-12-18T06:04:26;30.65;;;11.52;;
44955;SDS011;30686;52.512;-1.188;2022-12-18T06:06:54;27.83;;;11.63;;
44955;SDS011;30686;52.512;-1.188;2022-12-18T06:09:20;35.35;;;13.02;;
44955;SDS011;30686;52.512;-1.188;2022-12-18T06:11:46;30.85;;;10.48;;
44955;SDS011;30686;52.512;-1.188;2022-12-18T06:14:13;30.20;;;11.35;;
44955;SDS011;30686;52.512;-1.188;2022-12-18T06:16:42;25.13;;;10.48;;
44955;SDS011;30686;52.512;-1.188;2022-12-18T06:19:12;34.00;;;11.27;;
44955;SDS011;30686;52.512;-1.188;2022-12-18T06:21:39;25.95;;;10.27;;
44955;SDS011;30686;52.512;-1.188;2022-12-18T06:24:05;34.60;;;10.82;;
44955;SDS011;30686;52.512;-1.188;2022-12-18T06:26:32;26.25;;;10.93;;
44955;SDS011;30686;52.512;-1.188;2022-12-18T06:28:58;26.02;;;10.57;;
44955;SDS011;30686;52.512;-1.188;2022-12-18T06:31:24;26.27;;;10.43;;
44955;SDS011;30686;52.512;-1.188;2022-12-18T06:33:50;28.95;;;10.60;;
44955;SDS011;30686;52.512;-1.188;2022-12-18T06:36:17;25.85;;;10.60;;
44955;SDS011;30686;52.512;-1.188;2022-12-18T06:38:43;27.30;;;11.00;;
44955;SDS011;30686;52.512;-1.188;2022-12-18T06:41:10;20.48;;;9.05;;
44955;SDS011;30686;52.512;-1.188;2022-12-18T06:43:37;29.58;;;10.23;;
44955;SDS011;30686;52.512;-1.188;2022-12-18T06:46:04;22.13;;;7.88;;
44955;SDS011;30686;52.512;-1.188;2022-12-18T06:48:31;20.40;;;8.80;;
44955;SDS011;30686;52.512;-1.188;2022-12-18T06:50:58;21.60;;;9.85;;
44955;SDS011;30686;52.512;-1.188;2022-12-18T06:53:25;24.48;;;9.85;;
44955;SDS011;30686;52.512;-1.188;2022-12-18T06:55:51;22.55;;;8.65;;
44955;SDS011;30686;52.512;-1.188;2022-12-18T06:58:17;24.23;;;9.90;;
44955;SDS011;30686;52.512;-1.188;2022-12-18T07:00:44;25.42;;;10.10;;
44955;SDS011;30686;52.512;-1.188;2022-12-18T07:03:10;33.22;;;11.18;;
44955;SDS011;30686;52.512;-1.188;2022-12-18T07:05:39;24.73;;;8.10;;
44955;SDS011;30686;52.512;-1.188;2022-12-18T07:08:06;28.42;;;10.93;;
44955;SDS011;30686;52.512;-1.188;2022-12-18T07:10:32;20.17;;;8.00;;
44955;SDS011;30686;52.512;-1.188;2022-12-18T07:12:58;19.52;;;6.78;;
44955;SDS011;30686;52.512;-1.188;2022-12-18T07:15:24;21.85;;;10.13;;
44955;SDS011;30686;52.512;-1.188;2022-12-18T07:17:51;14.27;;;6.63;;
44955;SDS011;30686;52.512;-1.188;2022-12-18T07:20:17;22.80;;;9.48;;
44955;SDS011;30686;52.512;-1.188;2022-12-18T07:22:43;13.00;;;6.72;;
44955;SDS011;30686;52.512;-1.188;2022-12-18T07:25:10;18.88;;;7.90;;
44955;SDS011;30686;52.512;-1.188;2022-12-18T07:27:36;23.60;;;9.48;;
44955;SDS011;30686;52.512;-1.188;2022-12-18T07:30:02;23.50;;;7.50;;
44955;SDS011;30686;52.512;-1.188;2022-12-18T07:32:29;21.20;;;8.50;;
44955;SDS011;30686;52.512;-1.188;2022-12-18T07:34:56;16.90;;;6.07;;
44955;SDS011;30686;52.512;-1.188;2022-12-18T07:37:22;20.13;;;8.43;;
44955;SDS011;30686;52.512;-1.188;2022-12-18T07:39:48;21.98;;;9.55;;
44955;SDS011;30686;52.512;-1.188;2022-12-18T07:42:14;23.85;;;9.02;;
44955;SDS011;30686;52.512;-1.188;2022-12-18T07:44:56;24.05;;;8.32;;
44955;SDS011;30686;52.512;-1.188;2022-12-18T07:47:22;23.60;;;9.02;;
44955;SDS011;30686;52.512;-1.188;2022-12-18T07:49:48;21.88;;;9.60;;
44955;SDS011;30686;52.512;-1.188;2022-12-18T07:52:14;24.75;;;8.88;;
44955;SDS011;30686;52.512;-1.188;2022-12-18T07:54:44;20.55;;;8.35;;
44955;SDS011;30686;52.512;-1.188;2022-12-18T07:57:24;29.10;;;10.15;;
44955;SDS011;30686;52.512;-1.188;2022-12-18T07:59:50;24.20;;;8.93;;
44955;SDS011;30686;52.512;-1.188;2022-12-18T08:02:16;23.65;;;8.13;;
44955;SDS011;30686;52.512;-1.188;2022-12-18T08:04:42;21.98;;;8.60;;
44955;SDS011;30686;52.512;-1.188;2022-12-18T08:07:09;22.90;;;9.07;;
44955;SDS011;30686;52.512;-1.188;2022-12-18T08:09:35;20.67;;;8.50;;
44955;SDS011;30686;52.512;-1.188;2022-12-18T08:12:03;18.52;;;8.10;;
44955;SDS011;30686;52.512;-1.188;2022-12-18T08:14:29;22.27;;;8.02;;
44955;SDS011;30686;52.512;-1.188;2022-12-18T08:16:58;20.65;;;8.00;;
44955;SDS011;30686;52.512;-1.188;2022-12-18T08:19:24;22.58;;;7.97;;
44955;SDS011;30686;52.512;-1.188;2022-12-18T08:21:50;19.15;;;7.57;;
44955;SDS011;30686;52.512;-1.188;2022-12-18T08:24:16;19.75;;;7.72;;
44955;SDS011;30686;52.512;-1.188;2022-12-18T08:26:43;22.38;;;8.90;;
44955;SDS011;30686;52.512;-1.188;2022-12-18T08:29:09;27.65;;;10.38;;
44955;SDS011;30686;52.512;-1.188;2022-12-18T08:31:36;19.17;;;8.57;;
44955;SDS011;30686;52.512;-1.188;2022-12-18T08:34:03;19.60;;;6.93;;
44955;SDS011;30686;52.512;-1.188;2022-12-18T08:36:29;21.98;;;8.60;;
44955;SDS011;30686;52.512;-1.188;2022-12-18T08:38:56;20.42;;;7.78;;
44955;SDS011;30686;52.512;-1.188;2022-12-18T08:41:23;23.48;;;8.98;;
44955;SDS011;30686;52.512;-1.188;2022-12-18T08:43:53;19.58;;;7.82;;
44955;SDS011;30686;52.512;-1.188;2022-12-18T08:46:39;24.75;;;9.75;;
44955;SDS011;30686;52.512;-1.188;2022-12-18T08:49:06;18.83;;;6.03;;
44955;SDS011;30686;52.512;-1.188;2022-12-18T08:51:33;23.83;;;8.18;;
44955;SDS011;30686;52.512;-1.188;2022-12-18T08:53:59;17.25;;;7.00;;
44955;SDS011;30686;52.512;-1.188;2022-12-18T08:56:26;19.65;;;7.70;;
44955;SDS011;30686;52.512;-1.188;2022-12-18T08:58:52;20.38;;;8.27;;
44955;SDS011;30686;52.512;-1.188;2022-12-18T09:01:25;17.55;;;6.15;;
44955;SDS011;30686;52.512;-1.188;2022-12-18T09:03:51;19.75;;;7.88;;
44955;SDS011;30686;52.512;-1.188;2022-12-18T09:06:38;21.08;;;7.85;;
44955;SDS011;30686;52.512;-1.188;2022-12-18T09:09:04;22.73;;;8.15;;
44955;SDS011;30686;52.512;-1.188;2022-12-18T09:11:31;24.17;;;9.45;;
44955;SDS011;30686;52.512;-1.188;2022-12-18T09:13:58;16.85;;;8.13;;
44955;SDS011;30686;52.512;-1.188;2022-12-18T09:16:25;19.63;;;9.23;;
44955;SDS011;30686;52.512;-1.188;2022-12-18T09:18:54;24.05;;;9.80;;
44955;SDS011;30686;52.512;-1.188;2022-12-18T09:21:25;20.08;;;7.88;;
44955;SDS011;30686;52.512;-1.188;2022-12-18T09:23:51;21.42;;;8.90;;
44955;SDS011;30686;52.512;-1.188;2022-12-18T09:26:18;28.23;;;9.18;;
44955;SDS011;30686;52.512;-1.188;2022-12-18T09:28:44;21.95;;;8.93;;
44955;SDS011;30686;52.512;-1.188;2022-12-18T09:31:11;20.85;;;8.00;;
44955;SDS011;30686;52.512;-1.188;2022-12-18T09:33:37;16.40;;;7.45;;
44955;SDS011;30686;52.512;-1.188;2022-12-18T09:36:05;18.75;;;7.10;;
44955;SDS011;30686;52.512;-1.188;2022-12-18T09:38:32;23.10;;;9.50;;
44955;SDS011;30686;52.512;-1.188;2022-12-18T09:41:13;21.17;;;8.65;;
44955;SDS011;30686;52.512;-1.188;2022-12-18T09:43:51;20.33;;;7.68;;
44955;SDS011;30686;52.512;-1.188;2022-12-18T09:46:23;18.50;;;8.57;;
44955;SDS011;30686;52.512;-1.188;2022-12-18T09:48:52;18.88;;;7.13;;
44955;SDS011;30686;52.512;-1.188;2022-12-18T09:51:32;18.92;;;8.93;;
44955;SDS011;30686;52.512;-1.188;2022-12-18T09:54:02;17.75;;;7.25;;
44955;SDS011;30686;52.512;-1.188;2022-12-18T09:56:31;24.05;;;8.85;;
44955;SDS011;30686;52.512;-1.188;2022-12-18T09:59:01;23.00;;;9.20;;
44955;SDS011;30686;52.512;-1.188;2022-12-18T10:01:28;29.25;;;8.32;;
44955;SDS011;30686;52.512;-1.188;2022-12-18T10:03:55;21.33;;;7.90;;
44955;SDS011;30686;52.512;-1.188;2022-12-18T10:19:51;18.90;;;7.53;;
44955;SDS011;30686;52.512;-1.188;2022-12-18T10:27:15;18.38;;;7.90;;
44955;SDS011;30686;52.512;-1.188;2022-12-18T10:29:44;19.73;;;8.57;;
44955;SDS011;30686;52.512;-1.188;2022-12-18T10:32:18;16.85;;;7.75;;
44955;SDS011;30686;52.512;-1.188;2022-12-18T10:34:45;23.08;;;8.55;;
44955;SDS011;30686;52.512;-1.188;2022-12-18T10:37:14;18.33;;;7.93;;
44955;SDS011;30686;52.512;-1.188;2022-12-18T10:39:45;21.55;;;8.57;;
44955;SDS011;30686;52.512;-1.188;2022-12-18T10:42:16;21.20;;;8.27;;
44955;SDS011;30686;52.512;-1.188;2022-12-18T10:44:43;19.23;;;8.60;;
44955;SDS011;30686;52.512;-1.188;2022-12-18T10:47:17;18.50;;;7.80;;
44955;SDS011;30686;52.512;-1.188;2022-12-18T10:49:50;22.23;;;8.27;;
44955;SDS011;30686;52.512;-1.188;2022-12-18T10:52:23;19.88;;;7.63;;
44955;SDS011;30686;52.512;-1.188;2022-12-18T10:59:54;19.70;;;8.18;;
44955;SDS011;30686;52.512;-1.188;2022-12-18T11:02:27;22.85;;;10.27;;
44955;SDS011;30686;52.512;-1.188;2022-12-18T11:04:54;17.85;;;7.90;;
44955;SDS011;30686;52.512;-1.188;2022-12-18T11:07:20;18.48;;;7.57;;
44955;SDS011;30686;52.512;-1.188;2022-12-18T11:09:46;18.58;;;9.18;;
44955;SDS011;30686;52.512;-1.188;2022-12-18T11:12:25;14.57;;;6.85;;
44955;SDS011;30686;52.512;-1.188;2022-12-18T11:14:56;18.20;;;7.72;;
44955;SDS011;30686;52.512;-1.188;2022-12-18T11:17:30;20.00;;;7.80;;
44955;SDS011;30686;52.512;-1.188;2022-12-18T11:20:00;25.20;;;7.97;;
44955;SDS011;30686;52.512;-1.188;2022-12-18T11:27:22;14.90;;;5.95;;
44955;SDS011;30686;52.512;-1.188;2022-12-18T11:29:49;21.63;;;9.02;;
44955;SDS011;30686;52.512;-1.188;2022-12-18T11:32:23;24.13;;;9.07;;
44955;SDS011;30686;52.512;-1.188;2022-12-18T11:35:34;19.35;;;7.88;;
44955;SDS011;30686;52.512;-1.188;2022-12-18T11:37:41;22.67;;;10.02;;
44955;SDS011;30686;52.512;-1.188;2022-12-18T11:40:16;23.08;;;9.50;;
44955;SDS011;30686;52.512;-1.188;2022-12-18T11:42:52;17.40;;;8.65;;
44955;SDS011;30686;52.512;-1.188;2022-12-18T11:45:25;23.13;;;9.25;;
44955;SDS011;30686;52.512;-1.188;2022-12-18T11:50:37;19.52;;;10.65;;
44955;SDS011;30686;52.512;-1.188;2022-12-18T11:53:11;25.20;;;11.60;;
44955;SDS011;30686;52.512;-1.188;2022-12-18T12:00:38;21.42;;;9.43;;
44955;SDS011;30686;52.512;-1.188;2022-12-18T12:03:34;28.23;;;11.75;;
44955;SDS011;30686;52.512;-1.188;2022-12-18T12:08:42;24.83;;;10.57;;
44955;SDS011;30686;52.512;-1.188;2022-12-18T12:11:15;25.52;;;10.10;;
44955;SDS011;30686;52.512;-1.188;2022-12-18T12:18:49;22.00;;;9.13;;
44955;SDS011;30686;52.512;-1.188;2022-12-18T12:23:57;23.83;;;11.02;;
44955;SDS011;30686;52.512;-1.188;2022-12-18T12:29:00;23.95;;;10.43;;
44955;SDS011;30686;52.512;-1.188;2022-12-18T12:39:06;17.83;;;9.25;;
44955;SDS011;30686;52.512;-1.188;2022-12-18T12:41:34;24.25;;;9.98;;
44955;SDS011;30686;52.512;-1.188;2022-12-18T12:44:27;19.80;;;8.48;;
44955;SDS011;30686;52.512;-1.188;2022-12-18T12:46:56;30.60;;;8.27;;
44955;SDS011;30686;52.512;-1.188;2022-12-18T12:49:25;18.77;;;7.50;;
44955;SDS011;30686;52.512;-1.188;2022-12-18T12:52:00;21.00;;;9.93;;
44955;SDS011;30686;52.512;-1.188;2022-12-18T12:54:29;22.42;;;11.40;;
44955;SDS011;30686;52.512;-1.188;2022-12-18T12:57:00;28.75;;;12.85;;
44955;SDS011;30686;52.512;-1.188;2022-12-18T12:59:48;32.58;;;12.23;;
44955;SDS011;30686;52.512;-1.188;2022-12-18T13:02:30;23.88;;;10.27;;
44955;SDS011;30686;52.512;-1.188;2022-12-18T13:07:46;26.35;;;10.93;;
44955;SDS011;30686;52.512;-1.188;2022-12-18T13:12:57;22.08;;;10.45;;
44955;SDS011;30686;52.512;-1.188;2022-12-18T13:15:26;28.67;;;10.80;;
44955;SDS011;30686;52.512;-1.188;2022-12-18T13:20:43;17.92;;;8.70;;
44955;SDS011;30686;52.512;-1.188;2022-12-18T13:28:49;26.08;;;11.48;;
44955;SDS011;30686;52.512;-1.188;2022-12-18T13:36:41;22.17;;;11.38;;
44955;SDS011;30686;52.512;-1.188;2022-12-18T13:41:40;23.83;;;9.90;;
44955;SDS011;30686;52.512;-1.188;2022-12-18T13:44:49;22.65;;;8.60;;
44955;SDS011;30686;52.512;-1.188;2022-12-18T13:46:57;27.38;;;10.77;;
44955;SDS011;30686;52.512;-1.188;2022-12-18T13:51:52;21.75;;;9.38;;
44955;SDS011;30686;52.512;-1.188;2022-12-18T13:54:19;24.98;;;10.80;;
44955;SDS011;30686;52.512;-1.188;2022-12-18T13:56:48;21.52;;;9.63;;
44955;SDS011;30686;52.512;-1.188;2022-12-18T13:59:16;19.17;;;9.55;;
44955;SDS011;30686;52.512;-1.188;2022-12-18T14:01:51;22.58;;;10.30;;
44955;SDS011;30686;52.512;-1.188;2022-12-18T14:06:47;21.42;;;9.40;;
44955;SDS011;30686;52.512;-1.188;2022-12-18T14:09:15;23.50;;;8.68;;
44955;SDS011;30686;52.512;-1.188;2022-12-18T14:11:48;14.60;;;6.65;;
44955;SDS011;30686;52.512;-1.188;2022-12-18T14:14:16;12.52;;;6.65;;
44955;SDS011;30686;52.512;-1.188;2022-12-18T14:16:43;18.40;;;9.45;;
44955;SDS011;30686;52.512;-1.188;2022-12-18T14:19:11;17.08;;;7.40;;
44955;SDS011;30686;52.512;-1.188;2022-12-18T14:21:39;22.98;;;9.88;;
44955;SDS011;30686;52.512;-1.188;2022-12-18T14:24:19;12.07;;;5.47;;
44955;SDS011;30686;52.512;-1.188;2022-12-18T14:26:47;16.92;;;7.63;;
44955;SDS011;30686;52.512;-1.188;2022-12-18T14:29:21;20.85;;;8.88;;
44955;SDS011;30686;52.512;-1.188;2022-12-18T14:34:15;17.27;;;8.15;;
44955;SDS011;30686;52.512;-1.188;2022-12-18T14:36:41;20.15;;;8.52;;
44955;SDS011;30686;52.512;-1.188;2022-12-18T14:39:20;29.88;;;11.52;;
44955;SDS011;30686;52.512;-1.188;2022-12-18T14:41:49;29.90;;;12.65;;
44955;SDS011;30686;52.512;-1.188;2022-12-18T14:44:16;43.75;;;13.77;;
44955;SDS011;30686;52.512;-1.188;2022-12-18T14:46:43;31.13;;;13.05;;
44955;SDS011;30686;52.512;-1.188;2022-12-18T14:49:30;61.20;;;20.15;;
44955;SDS011;30686;52.512;-1.188;2022-12-18T14:52:05;27.17;;;10.50;;
44955;SDS011;30686;52.512;-1.188;2022-12-18T14:54:32;20.20;;;8.75;;
44955;SDS011;30686;52.512;-1.188;2022-12-18T14:57:03;22.35;;;8.45;;
44955;SDS011;30686;52.512;-1.188;2022-12-18T14:59:30;18.98;;;10.00;;
44955;SDS011;30686;52.512;-1.188;2022-12-18T15:07:22;13.02;;;5.75;;
44955;SDS011;30686;52.512;-1.188;2022-12-18T15:12:37;14.85;;;6.40;;
44955;SDS011;30686;52.512;-1.188;2022-12-18T15:15:04;14.75;;;7.20;;
44955;SDS011;30686;52.512;-1.188;2022-12-18T15:17:31;19.05;;;6.40;;
44955;SDS011;30686;52.512;-1.188;2022-12-18T15:20:01;13.15;;;4.72;;
44955;SDS011;30686;52.512;-1.188;2022-12-18T15:22:29;10.60;;;5.22;;
44955;SDS011;30686;52.512;-1.188;2022-12-18T15:24:57;15.55;;;5.70;;
44955;SDS011;30686;52.512;-1.188;2022-12-18T15:32:35;10.75;;;5.78;;
44955;SDS011;30686;52.512;-1.188;2022-12-18T15:37:37;13.38;;;4.53;;
44955;SDS011;30686;52.512;-1.188;2022-12-18T15:40:03;10.20;;;5.05;;
44955;SDS011;30686;52.512;-1.188;2022-12-18T15:42:30;10.05;;;5.20;;
44955;SDS011;30686;52.512;-1.188;2022-12-18T15:45:15;6.15;;;2.97;;
44955;SDS011;30686;52.512;-1.188;2022-12-18T15:47:41;8.07;;;4.43;;
44955;SDS011;30686;52.512;-1.188;2022-12-18T15:50:07;9.70;;;5.18;;
44955;SDS011;30686;52.512;-1.188;2022-12-18T15:52:39;9.23;;;4.93;;
44955;SDS011;30686;52.512;-1.188;2022-12-18T15:55:13;11.65;;;6.10;;
44955;SDS011;30686;52.512;-1.188;2022-12-18T15:57:58;10.57;;;5.88;;
44955;SDS011;30686;52.512;-1.188;2022-12-18T16:00:24;12.80;;;6.78;;
44955;SDS011;30686;52.512;-1.188;2022-12-18T16:02:51;10.73;;;4.82;;
44955;SDS011;30686;52.512;-1.188;2022-12-18T16:05:18;10.50;;;5.18;;
44955;SDS011;30686;52.512;-1.188;2022-12-18T16:07:44;8.63;;;4.72;;
44955;SDS011;30686;52.512;-1.188;2022-12-18T16:10:13;11.90;;;4.95;;
44955;SDS011;30686;52.512;-1.188;2022-12-18T16:12:39;8.65;;;4.25;;
44955;SDS011;30686;52.512;-1.188;2022-12-18T16:15:06;8.70;;;4.22;;
44955;SDS011;30686;52.512;-1.188;2022-12-18T16:17:33;6.85;;;2.80;;
44955;SDS011;30686;52.512;-1.188;2022-12-18T16:19:59;8.10;;;4.00;;
44955;SDS011;30686;52.512;-1.188;2022-12-18T16:22:26;8.30;;;3.95;;
44955;SDS011;30686;52.512;-1.188;2022-12-18T16:24:53;9.38;;;5.13;;
44955;SDS011;30686;52.512;-1.188;2022-12-18T16:27:20;7.30;;;4.43;;
44955;SDS011;30686;52.512;-1.188;2022-12-18T16:29:46;8.70;;;4.28;;
44955;SDS011;30686;52.512;-1.188;2022-12-18T16:32:14;7.72;;;3.85;;
44955;SDS011;30686;52.512;-1.188;2022-12-18T16:34:40;11.68;;;3.92;;
44955;SDS011;30686;52.512;-1.188;2022-12-18T16:37:07;10.57;;;3.65;;
44955;SDS011;30686;52.512;-1.188;2022-12-18T16:39:34;6.13;;;3.33;;
44955;SDS011;30686;52.512;-1.188;2022-12-18T16:42:01;8.13;;;3.53;;
44955;SDS011;30686;52.512;-1.188;2022-12-18T16:44:28;7.63;;;3.03;;
44955;SDS011;30686;52.512;-1.188;2022-12-18T16:46:54;9.30;;;3.80;;
44955;SDS011;30686;52.512;-1.188;2022-12-18T16:49:26;7.88;;;3.22;;